Time;durP1;ratioP1;P1;durP2;ratioP2;P2;SDS_P1;SDS_P2;PMS_P1;PMS_P2;Temp;Humidity;BMP_temperature;BMP_pressure;BME280_temperature;BME280_humidity;BME280_pressure;Samples;Min_cycle;Max_cycle;Signal;HPM_P1;HPM_P2
2024/01/24 00:22:25;;;;;;;8.05;3.65;;;-3.10;80.70;;;;;;5109517;27;20615;-70
2024/01/24 00:24:51;;;;;;;4.97;3.47;;;-3.10;78.00;;;;;;5109383;28;20414;-70
2024/01/24 00:27:17;;;;;;;4.22;2.28;;;-3.10;77.60;;;;;;5109056;28;20036;-70
2024/01/24 00:29:43;;;;;;;4.07;2.90;;;-3.10;76.90;;;;;;5108304;28;20056;-70
2024/01/24 00:32:10;;;;;;;9.82;3.75;;;-3.00;76.50;;;;;;5109005;28;20078;-70
2024/01/24 00:34:36;;;;;;;5.70;3.88;;;-3.00;76.30;;;;;;5109348;28;20027;-70
2024/01/24 00:37:02;;;;;;;5.80;2.50;;;-2.90;76.10;;;;;;5107594;28;20073;-70
2024/01/24 00:39:28;;;;;;;10.48;3.85;;;-2.90;75.80;;;;;;5108067;28;20116;-70
2024/01/24 00:41:58;;;;;;;7.63;5.13;;;-2.90;75.50;;;;;;5107003;28;20117;-70
2024/01/24 00:44:24;;;;;;;3.40;2.92;;;-2.80;75.00;;;;;;5108305;28;20039;-69
2024/01/24 00:46:51;;;;;;;5.90;2.47;;;-2.80;74.70;;;;;;5107458;28;20043;-70
2024/01/24 00:49:17;;;;;;;;;;;-2.70;74.40;;;;;;5108685;28;20078;-70
2024/01/24 00:51:44;;;;;;;7.25;3.83;;;-2.50;74.00;;;;;;5106821;28;19920;-70
2024/01/24 00:54:10;;;;;;;8.95;6.78;;;-2.40;73.60;;;;;;5109203;28;20024;-70
2024/01/24 00:56:36;;;;;;;7.53;4.55;;;-2.30;73.20;;;;;;5090431;28;20036;-70
2024/01/24 00:59:02;;;;;;;7.82;4.85;;;-2.20;73.00;;;;;;5109006;28;20047;-70
2024/01/24 01:01:28;;;;;;;25.48;6.75;;;-2.10;72.80;;;;;;5107072;28;20036;-70
2024/01/24 01:03:54;;;;;;;14.13;7.82;;;-2.00;72.50;;;;;;5107228;28;20081;-70
2024/01/24 01:06:22;;;;;;;12.20;4.50;;;-1.90;72.30;;;;;;5106911;28;20047;-70
2024/01/24 01:08:48;;;;;;;13.02;6.88;;;-1.80;72.00;;;;;;5089911;28;20723;-70
2024/01/24 01:11:14;;;;;;;5.53;3.03;;;-1.70;71.30;;;;;;5105835;28;20511;-70
2024/01/24 01:13:40;;;;;;;9.68;5.55;;;-1.60;71.70;;;;;;5108235;28;20028;-70
2024/01/24 01:16:06;;;;;;;7.93;5.07;;;-1.60;71.60;;;;;;5106405;28;20081;-70
2024/01/24 01:18:32;;;;;;;12.00;5.47;;;-1.50;71.60;;;;;;5090091;28;20035;-70
2024/01/24 01:20:58;;;;;;;12.10;6.88;;;-1.50;71.50;;;;;;5107769;28;20052;-70
2024/01/24 01:23:24;;;;;;;7.70;4.70;;;-1.40;71.10;;;;;;5094475;28;20028;-70
2024/01/24 01:25:51;;;;;;;10.95;5.43;;;-1.30;70.90;;;;;;5094482;28;20133;-70
2024/01/24 01:28:17;;;;;;;12.40;5.82;;;-1.20;70.70;;;;;;5094383;28;20130;-70
2024/01/24 01:30:43;;;;;;;12.10;7.40;;;-1.20;70.70;;;;;;5093510;28;20058;-70
2024/01/24 01:33:09;;;;;;;12.93;6.63;;;-1.20;70.60;;;;;;5093082;28;20069;-70
2024/01/24 01:35:35;;;;;;;11.95;5.85;;;-1.10;70.50;;;;;;5092401;28;20032;-70
2024/01/24 01:38:02;;;;;;;8.15;4.28;;;-1.10;70.50;;;;;;5093820;28;20040;-70
2024/01/24 01:40:28;;;;;;;7.95;3.90;;;-1.10;70.60;;;;;;5093431;28;20032;-70
2024/01/24 01:42:54;;;;;;;8.52;4.78;;;-1.10;69.80;;;;;;5092615;28;20028;-70
2024/01/24 01:45:21;;;;;;;12.38;3.80;;;-1.00;70.40;;;;;;5092195;28;20053;-70
2024/01/24 01:47:49;;;;;;;8.80;4.47;;;-1.00;70.40;;;;;;5092416;28;20047;-70
2024/01/24 01:50:15;;;;;;;5.03;3.40;;;-1.00;70.00;;;;;;5091817;28;20437;-70
2024/01/24 01:52:43;;;;;;;9.38;4.43;;;-0.90;70.20;;;;;;5092329;28;20032;-70
2024/01/24 01:55:12;;;;;;;8.52;4.75;;;-0.90;70.00;;;;;;5075168;28;20101;-70
2024/01/24 01:57:42;;;;;;;10.52;5.53;;;-0.80;70.00;;;;;;5093676;28;20078;-70
2024/01/24 02:00:10;;;;;;;11.40;6.43;;;-0.70;70.00;;;;;;5092225;28;20361;-70
2024/01/24 02:02:37;;;;;;;13.00;6.57;;;-0.70;69.90;;;;;;5092908;28;20032;-70
2024/01/24 02:05:04;;;;;;;16.48;6.28;;;-0.70;69.50;;;;;;5094037;28;20040;-70
2024/01/24 02:07:30;;;;;;;12.75;6.72;;;-0.70;70.20;;;;;;5092727;28;20149;-70
2024/01/24 02:09:57;;;;;;;10.55;6.50;;;-0.60;70.30;;;;;;5075804;28;20161;-70
2024/01/24 02:12:24;;;;;;;14.32;9.27;;;-0.60;70.50;;;;;;5092139;28;20438;-70
2024/01/24 02:14:50;;;;;;;12.85;6.15;;;-0.60;70.30;;;;;;5092355;28;20384;-70
2024/01/24 02:17:16;;;;;;;9.38;5.97;;;-0.50;70.20;;;;;;5092774;28;20369;-70
2024/01/24 02:19:42;;;;;;;7.88;5.90;;;-0.50;70.20;;;;;;5091953;28;20411;-70
2024/01/24 02:22:08;;;;;;;14.95;7.80;;;-0.40;70.00;;;;;;5092545;28;20040;-70
2024/01/24 02:24:34;;;;;;;9.25;6.25;;;-0.40;69.70;;;;;;5091860;28;20403;-70
2024/01/24 02:27:00;;;;;;;11.02;4.90;;;-0.30;69.70;;;;;;5074307;28;20557;-70
2024/01/24 02:29:26;;;;;;;6.47;4.95;;;-0.30;69.60;;;;;;5091707;28;20484;-70
2024/01/24 02:31:52;;;;;;;7.50;5.63;;;-0.30;69.50;;;;;;5092724;28;20048;-70
2024/01/24 02:34:18;;;;;;;7.30;4.72;;;-0.30;69.60;;;;;;5091568;28;20043;-70
2024/01/24 02:36:44;;;;;;;4.80;3.70;;;-0.20;69.60;;;;;;5092779;28;20103;-70
2024/01/24 02:39:11;;;;;;;9.57;3.22;;;-0.20;69.60;;;;;;5092645;28;20036;-70
2024/01/24 02:41:40;;;;;;;7.50;4.32;;;-0.10;69.50;;;;;;5090420;28;20071;-70
2024/01/24 02:44:06;;;;;;;12.73;4.38;;;-0.10;69.40;;;;;;5091440;28;20107;-70
2024/01/24 02:46:32;;;;;;;15.52;7.20;;;-0.10;69.30;;;;;;5091041;28;20044;-70
2024/01/24 02:48:58;;;;;;;12.55;5.80;;;0.00;69.20;;;;;;5092721;28;20040;-70
2024/01/24 02:51:25;;;;;;;6.78;4.90;;;0.00;69.20;;;;;;5073504;28;20051;-70
2024/01/24 02:53:52;;;;;;;8.30;5.22;;;0.00;69.00;;;;;;5091182;28;20028;-70
2024/01/24 02:56:19;;;;;;;13.65;6.82;;;0.00;68.60;;;;;;5091265;28;20384;-70
2024/01/24 02:58:46;;;;;;;10.25;5.85;;;0.00;69.20;;;;;;5091119;28;20036;-70
2024/01/24 03:01:12;;;;;;;10.77;6.55;;;0.10;69.20;;;;;;5090653;28;20090;-70
2024/01/24 03:03:57;;;;;;;9.15;5.80;;;0.10;69.50;;;;;;5093104;28;20032;-70
2024/01/24 03:06:23;;;;;;;17.85;6.07;;;0.10;69.80;;;;;;5091555;28;20089;-70
2024/01/24 03:08:51;;;;;;;8.20;4.65;;;0.00;69.80;;;;;;5091725;28;20044;-70
2024/01/24 03:11:18;;;;;;;13.73;8.02;;;0.00;69.80;;;;;;5090830;28;20079;-70
2024/01/24 03:13:44;;;;;;;;;;;-0.10;69.60;;;;;;5075389;28;20496;-70
2024/01/24 03:16:10;;;;;;;13.70;8.85;;;-0.10;69.80;;;;;;5091047;28;19959;-70
2024/01/24 03:18:37;;;;;;;8.85;7.63;;;-0.10;70.30;;;;;;5092423;28;20031;-70
2024/01/24 03:21:06;;;;;;;12.35;7.45;;;0.00;70.00;;;;;;5089641;28;20052;-70
2024/01/24 03:23:32;;;;;;;10.95;5.07;;;0.00;69.70;;;;;;5090994;28;20016;-70
2024/01/24 03:25:58;;;;;;;9.63;5.65;;;0.00;69.60;;;;;;5090526;28;20040;-70
2024/01/24 03:28:24;;;;;;;10.13;5.43;;;0.00;69.70;;;;;;5091913;28;20055;-70
2024/01/24 03:30:51;;;;;;;21.00;5.55;;;0.00;69.80;;;;;;5091055;28;20044;-70
2024/01/24 03:33:17;;;;;;;13.13;5.78;;;0.00;69.90;;;;;;5073797;28;20481;-70
2024/01/24 03:35:43;;;;;;;10.13;7.22;;;0.00;70.00;;;;;;5091968;28;20201;-70
2024/01/24 03:38:09;;;;;;;10.57;7.38;;;0.00;69.90;;;;;;5091242;28;20043;-70
2024/01/24 03:40:35;;;;;;;9.18;4.88;;;0.10;70.00;;;;;;5090139;28;20040;-70
2024/01/24 03:43:01;;;;;;;14.75;9.30;;;0.00;70.10;;;;;;5092284;28;20098;-70
2024/01/24 03:45:27;;;;;;;9.15;6.18;;;0.00;70.30;;;;;;5091849;28;20028;-70
2024/01/24 03:47:53;;;;;;;9.48;5.25;;;0.10;70.40;;;;;;5092211;28;20047;-70
2024/01/24 03:50:19;;;;;;;9.85;7.13;;;0.00;70.40;;;;;;5091344;28;20485;-70
2024/01/24 03:52:45;;;;;;;10.25;5.15;;;0.00;70.70;;;;;;5090972;28;20028;-70
2024/01/24 03:55:11;;;;;;;12.88;7.68;;;0.00;70.50;;;;;;5092486;28;20044;-70
2024/01/24 03:57:38;;;;;;;7.82;5.75;;;0.00;70.40;;;;;;5073776;28;20028;-70
2024/01/24 04:00:06;;;;;;;12.88;9.45;;;0.10;70.20;;;;;;5091309;28;20036;-70
2024/01/24 04:02:32;;;;;;;10.40;5.78;;;0.10;70.00;;;;;;5090792;28;20082;-70
2024/01/24 04:04:58;;;;;;;8.50;5.60;;;0.20;70.10;;;;;;5073954;28;20032;-70
2024/01/24 04:07:24;;;;;;;9.25;5.82;;;0.20;70.00;;;;;;5073154;28;20040;-70
2024/01/24 04:09:50;;;;;;;17.33;7.22;;;0.20;69.90;;;;;;5090935;28;20036;-70
2024/01/24 04:12:16;;;;;;;13.65;7.40;;;0.20;70.00;;;;;;5090635;28;20043;-70
2024/01/24 04:14:42;;;;;;;7.25;5.50;;;0.20;69.80;;;;;;5090514;28;20587;-70
2024/01/24 04:17:08;;;;;;;7.35;5.07;;;0.30;69.80;;;;;;5073002;28;20480;-70
2024/01/24 04:19:34;;;;;;;7.28;3.53;;;0.30;69.80;;;;;;5091832;28;20040;-70
2024/01/24 04:22:00;;;;;;;13.32;8.55;;;0.30;69.80;;;;;;5089625;28;20048;-70
2024/01/24 04:24:26;;;;;;;10.77;6.63;;;0.30;69.80;;;;;;5090603;28;20081;-70
2024/01/24 04:26:52;;;;;;;13.45;4.72;;;0.30;70.10;;;;;;5089825;28;20492;-70
2024/01/24 04:29:18;;;;;;;9.95;6.78;;;0.30;70.30;;;;;;5091188;28;20074;-70
2024/01/24 04:31:44;;;;;;;8.13;5.55;;;0.30;70.10;;;;;;5090196;28;20052;-70
2024/01/24 04:34:10;;;;;;;9.57;4.82;;;0.30;69.90;;;;;;5089936;28;20538;-70
2024/01/24 04:36:36;;;;;;;8.60;5.88;;;0.40;69.80;;;;;;5091255;28;20040;-70
2024/01/24 04:39:02;;;;;;;9.15;5.78;;;0.40;69.60;;;;;;5089986;28;20032;-70
2024/01/24 04:41:28;;;;;;;13.52;8.18;;;0.40;69.80;;;;;;5089190;28;20733;-69
2024/01/24 04:43:55;;;;;;;9.85;5.28;;;0.40;70.00;;;;;;5089659;28;20064;-70
2024/01/24 04:46:21;;;;;;;9.93;5.10;;;0.40;69.80;;;;;;5089361;28;20067;-70
2024/01/24 04:48:48;;;;;;;7.53;6.75;;;0.40;69.80;;;;;;5089664;28;20036;-70
2024/01/24 04:51:14;;;;;;;16.50;11.02;;;0.40;70.20;;;;;;5089970;28;20566;-70
2024/01/24 04:53:40;;;;;;;7.82;5.68;;;0.30;70.60;;;;;;5091008;28;20020;-70
2024/01/24 04:56:06;;;;;;;17.60;8.15;;;0.20;70.80;;;;;;5090655;28;20040;-70
2024/01/24 04:58:32;;;;;;;11.68;5.70;;;0.20;71.30;;;;;;5094217;28;20438;-70
2024/01/24 05:01:00;;;;;;;13.20;6.75;;;0.20;71.60;;;;;;5094030;28;20423;-70
2024/01/24 05:03:26;;;;;;;5.47;3.70;;;0.20;71.20;;;;;;5076626;28;20024;-70
2024/01/24 05:05:52;;;;;;;;;;;0.20;70.40;;;;;;5095217;28;20468;-70
2024/01/24 05:08:18;;;;;;;8.40;4.68;;;0.10;70.90;;;;;;5094446;28;19923;-70
2024/01/24 05:10:45;;;;;;;8.45;4.75;;;0.10;71.00;;;;;;5093775;28;20216;-70
2024/01/24 05:13:11;;;;;;;7.55;4.15;;;0.00;71.10;;;;;;5093224;28;20024;-70
2024/01/24 05:15:37;;;;;;;9.27;5.15;;;0.00;71.20;;;;;;5093679;28;20366;-70
2024/01/24 05:18:03;;;;;;;11.35;5.75;;;0.10;71.50;;;;;;5094327;28;20036;-70
2024/01/24 05:20:29;;;;;;;7.93;5.88;;;0.10;70.90;;;;;;5093178;28;20044;-70
2024/01/24 05:22:56;;;;;;;12.30;7.07;;;0.10;71.50;;;;;;5094252;28;20028;-70
2024/01/24 05:25:22;;;;;;;14.75;7.60;;;0.20;71.50;;;;;;5092897;28;20441;-70
2024/01/24 05:27:48;;;;;;;19.90;7.40;;;0.20;71.30;;;;;;5075910;28;20537;-70
2024/01/24 05:30:14;;;;;;;;;;;0.20;71.30;;;;;;5075714;28;20041;-70
2024/01/24 05:32:40;;;;;;;8.23;6.75;;;0.10;71.70;;;;;;5076108;28;19958;-70
2024/01/24 05:35:07;;;;;;;10.85;6.30;;;0.10;71.70;;;;;;5075702;28;20049;-70
2024/01/24 05:37:33;;;;;;;15.98;7.25;;;0.00;71.20;;;;;;5092503;28;20032;-70
2024/01/24 05:39:59;;;;;;;19.65;6.75;;;-0.10;72.40;;;;;;5094103;28;20032;-70
2024/01/24 05:42:25;;;;;;;8.35;5.30;;;-0.20;72.80;;;;;;5093251;28;20531;-70
2024/01/24 05:44:51;;;;;;;7.90;5.07;;;-0.30;72.80;;;;;;5092395;28;20036;-70
2024/01/24 05:47:17;;;;;;;14.05;7.93;;;-0.40;73.20;;;;;;5093556;28;20097;-70
2024/01/24 05:49:43;;;;;;;7.55;5.20;;;-0.40;73.30;;;;;;5093770;28;20111;-70
2024/01/24 05:52:09;;;;;;;12.55;7.90;;;-0.40;73.30;;;;;;5091491;28;20104;-70
2024/01/24 05:54:35;;;;;;;6.70;4.65;;;-0.50;73.20;;;;;;5092357;28;20086;-70
2024/01/24 05:57:01;;;;;;;13.25;5.90;;;-0.50;73.10;;;;;;5092144;28;20040;-70
2024/01/24 05:59:27;;;;;;;15.85;5.28;;;-0.60;73.00;;;;;;5093620;28;20024;-70
2024/01/24 06:01:53;;;;;;;7.80;5.05;;;-0.60;73.00;;;;;;5091445;28;20119;-70
2024/01/24 06:04:19;;;;;;;14.27;6.72;;;-0.60;73.00;;;;;;5093498;28;20031;-70
2024/01/24 06:06:45;;;;;;;11.25;6.70;;;-0.70;73.00;;;;;;5091994;28;20593;-70
2024/01/24 06:09:11;;;;;;;7.28;4.05;;;-0.80;73.20;;;;;;5092191;28;20105;-70
2024/01/24 06:11:37;;;;;;;12.00;7.47;;;-0.80;73.20;;;;;;5092492;28;20093;-70
2024/01/24 06:14:04;;;;;;;13.55;5.10;;;-0.90;73.20;;;;;;5091952;28;20119;-70
2024/01/24 06:16:30;;;;;;;9.00;6.25;;;-0.90;73.40;;;;;;5091655;28;20028;-70
2024/01/24 06:18:56;;;;;;;7.03;5.47;;;-1.00;73.20;;;;;;5091885;28;20484;-70
2024/01/24 06:21:22;;;;;;;7.50;4.03;;;-1.00;73.20;;;;;;5090727;28;20079;-70
2024/01/24 06:23:48;;;;;;;10.35;6.18;;;-1.00;73.20;;;;;;5075001;28;20111;-70
2024/01/24 06:26:14;;;;;;;21.92;7.07;;;-1.00;73.20;;;;;;5091591;28;20061;-70
2024/01/24 06:28:40;;;;;;;12.32;7.68;;;-1.00;73.00;;;;;;5091692;28;20161;-70
2024/01/24 06:31:06;;;;;;;10.00;6.70;;;-1.00;73.10;;;;;;5090911;28;20051;-70
2024/01/24 06:33:32;;;;;;;26.02;10.23;;;-1.00;73.20;;;;;;5092876;28;20024;-70
2024/01/24 06:35:58;;;;;;;11.52;7.65;;;-1.10;73.20;;;;;;5093061;28;20036;-70
2024/01/24 06:38:24;;;;;;;18.50;8.15;;;-1.20;73.00;;;;;;5092985;28;20046;-70
2024/01/24 06:40:50;;;;;;;18.20;8.57;;;-1.20;73.10;;;;;;5092089;28;20044;-70
2024/01/24 06:43:18;;;;;;;12.48;7.35;;;-1.20;73.30;;;;;;5091492;28;20020;-70
2024/01/24 06:45:45;;;;;;;13.75;9.73;;;-1.10;73.10;;;;;;5074309;28;20220;-70
2024/01/24 06:48:11;;;;;;;12.85;8.95;;;-1.20;72.90;;;;;;5092538;28;20036;-70
2024/01/24 06:50:39;;;;;;;18.55;8.30;;;-1.10;72.80;;;;;;5090471;28;20032;-70
2024/01/24 06:53:09;;;;;;;16.20;10.93;;;-1.20;72.80;;;;;;5092411;28;20532;-70
2024/01/24 06:55:36;;;;;;;17.88;11.02;;;-1.20;72.90;;;;;;5090977;28;20036;-70
2024/01/24 06:58:05;;;;;;;25.02;11.35;;;-1.20;72.70;;;;;;5091098;28;20477;-70
2024/01/24 07:00:32;;;;;;;12.13;9.50;;;-1.20;72.10;;;;;;5091631;28;20089;-70
2024/01/24 07:03:00;;;;;;;14.25;8.48;;;-1.10;72.50;;;;;;5092267;28;20036;-70
2024/01/24 07:05:26;;;;;;;11.93;6.13;;;-1.10;72.40;;;;;;5091923;28;20035;-70
2024/01/24 07:07:52;;;;;;;11.20;6.85;;;-1.10;72.20;;;;;;5090854;28;20040;-70
2024/01/24 07:10:18;;;;;;;18.05;8.43;;;-1.00;72.00;;;;;;5091610;28;20669;-70
2024/01/24 07:12:47;;;;;;;12.00;8.77;;;-1.00;71.90;;;;;;5090951;28;20024;-70
2024/01/24 07:18:00;;;;;;;16.20;9.25;;;-0.90;71.50;;;;;;5092246;28;20046;-70
2024/01/24 07:20:26;;;;;;;11.57;6.72;;;-0.80;71.50;;;;;;5090543;28;20040;-70
2024/01/24 07:22:52;;;;;;;30.30;14.68;;;-0.80;71.30;;;;;;5092000;28;20032;-70
2024/01/24 07:25:20;;;;;;;20.00;8.77;;;-0.70;71.30;;;;;;5090472;28;20044;-70
2024/01/24 07:27:48;;;;;;;14.70;7.82;;;-0.70;71.00;;;;;;5090521;28;20431;-70
2024/01/24 07:30:15;;;;;;;16.27;10.55;;;-0.80;70.70;;;;;;5089657;28;20036;-70
2024/01/24 07:32:42;;;;;;;19.05;7.90;;;-0.70;70.90;;;;;;5073621;28;20068;-69
2024/01/24 07:35:09;;;;;;;31.80;12.10;;;-0.70;70.60;;;;;;5090146;28;20112;-70
2024/01/24 07:37:36;;;;;;;25.88;12.25;;;-0.60;70.10;;;;;;5090249;28;20146;-70
2024/01/24 07:40:02;;;;;;;23.45;14.68;;;-0.50;70.70;;;;;;5090346;28;20063;-70
2024/01/24 07:42:29;;;;;;;16.00;10.73;;;-0.50;70.70;;;;;;5090028;28;20054;-70
2024/01/24 07:44:55;;;;;;;23.35;12.77;;;-0.40;70.70;;;;;;5090132;28;20032;-70
2024/01/24 07:47:21;;;;;;;13.95;10.63;;;-0.30;70.80;;;;;;5090053;28;20085;-70
2024/01/24 07:49:47;;;;;;;20.35;12.13;;;-0.30;70.50;;;;;;5091466;28;20114;-70
2024/01/24 07:52:13;;;;;;;20.55;10.60;;;-0.20;70.30;;;;;;5089491;28;20040;-70
2024/01/24 07:54:39;;;;;;;21.30;11.63;;;-0.10;70.20;;;;;;5090347;28;20040;-70
2024/01/24 07:57:06;;;;;;;20.15;9.98;;;0.00;69.90;;;;;;5090997;28;20032;-70
2024/01/24 07:59:32;;;;;;;17.80;9.60;;;0.00;69.70;;;;;;5073319;28;20151;-70
2024/01/24 08:01:58;;;;;;;22.27;14.30;;;0.20;69.60;;;;;;5090908;28;20436;-70
2024/01/24 08:04:24;;;;;;;15.75;8.90;;;0.20;69.50;;;;;;5091496;28;20445;-70
2024/01/24 08:06:50;;;;;;;25.75;14.57;;;0.40;69.50;;;;;;5089634;28;20040;-70
2024/01/24 08:09:17;;;;;;;34.28;13.75;;;0.50;69.20;;;;;;5091324;28;20561;-70
2024/01/24 08:11:44;;;;;;;12.57;9.60;;;0.60;68.40;;;;;;5090532;28;20040;-70
2024/01/24 08:14:10;;;;;;;14.38;8.77;;;0.70;68.90;;;;;;5090359;28;20107;-70
2024/01/24 08:16:36;;;;;;;25.95;16.02;;;0.90;68.50;;;;;;5091040;28;20089;-70
2024/01/24 08:19:02;;;;;;;23.83;11.98;;;1.10;68.10;;;;;;5090037;28;20447;-70
2024/01/24 08:21:28;;;;;;;27.05;16.92;;;1.30;67.90;;;;;;5090662;28;20093;-70
2024/01/24 08:23:54;;;;;;;27.58;17.65;;;1.50;67.70;;;;;;5091160;28;20108;-70
2024/01/24 08:26:21;;;;;;;31.33;19.45;;;1.60;67.30;;;;;;5089444;28;20088;-70
2024/01/24 08:28:47;;;;;;;;;;;1.70;67.20;;;;;;5090447;28;20097;-70
2024/01/24 08:31:13;;;;;;;17.07;11.80;;;1.80;67.40;;;;;;5088980;28;19920;-70
2024/01/24 08:33:40;;;;;;;20.13;12.25;;;1.90;66.20;;;;;;5095032;28;20956;-70
2024/01/24 08:36:06;;;;;;;23.95;14.32;;;2.10;66.40;;;;;;5076793;28;20408;-70
2024/01/24 08:38:32;;;;;;;21.75;14.70;;;2.40;65.90;;;;;;5095441;28;20036;-70
2024/01/24 08:40:58;;;;;;;17.05;10.95;;;2.60;65.40;;;;;;5094259;28;20101;-70
2024/01/24 08:43:24;;;;;;;19.25;12.05;;;2.80;64.90;;;;;;5095169;28;20034;-70
2024/01/24 08:45:50;;;;;;;18.10;12.30;;;2.90;64.70;;;;;;5094737;28;20069;-70
2024/01/24 08:48:17;;;;;;;;;;;3.00;64.30;;;;;;5094258;28;20032;-70
2024/01/24 08:50:44;;;;;;;18.37;14.67;;;3.00;64.10;;;;;;5093940;28;19920;-70
2024/01/24 08:53:10;;;;;;;27.73;12.63;;;3.10;64.40;;;;;;5093589;28;20032;-70
2024/01/24 08:55:36;;;;;;;20.33;14.65;;;3.10;64.00;;;;;;5093340;28;20032;-70
2024/01/24 08:58:02;;;;;;;23.25;16.35;;;3.20;63.80;;;;;;5094676;28;20040;-70
2024/01/24 09:00:28;;;;;;;19.35;14.40;;;3.30;63.80;;;;;;5092611;28;20036;-70
2024/01/24 09:02:54;;;;;;;17.98;13.13;;;3.40;63.80;;;;;;5076475;28;20089;-70
2024/01/24 09:05:21;;;;;;;14.40;11.07;;;3.40;63.50;;;;;;5093060;28;20044;-71
2024/01/24 09:07:47;;;;;;;18.45;12.40;;;3.50;63.60;;;;;;5093578;28;20436;-70
2024/01/24 09:10:13;;;;;;;;;;;3.50;63.60;;;;;;5094435;28;20032;-70
2024/01/24 09:12:39;;;;;;;23.23;16.38;;;3.60;63.60;;;;;;5095059;28;20402;-70
2024/01/24 09:15:06;;;;;;;16.35;14.45;;;3.60;63.40;;;;;;5094183;28;20036;-70
2024/01/24 09:17:33;;;;;;;23.42;13.82;;;3.80;62.80;;;;;;5092866;28;20043;-70
2024/01/24 09:19:59;;;;;;;17.77;12.00;;;4.40;62.00;;;;;;5093090;28;20032;-70
2024/01/24 09:22:25;;;;;;;20.40;11.07;;;4.60;61.00;;;;;;5092461;28;20101;-70
2024/01/24 09:24:51;;;;;;;16.77;10.73;;;4.70;60.50;;;;;;5092753;28;20412;-70
2024/01/24 09:27:17;;;;;;;17.33;8.52;;;5.10;60.30;;;;;;5092684;28;20036;-70
2024/01/24 09:29:43;;;;;;;9.00;6.20;;;5.60;59.20;;;;;;5092824;28;20450;-70
2024/01/24 09:32:10;;;;;;;9.15;6.53;;;6.10;58.10;;;;;;5092029;28;20032;-70
2024/01/24 09:34:36;;;;;;;8.38;5.70;;;6.20;57.40;;;;;;5094045;28;20032;-71
2024/01/24 09:37:02;;;;;;;10.23;7.50;;;6.40;57.50;;;;;;5093738;28;20058;-70
2024/01/24 09:39:29;;;;;;;14.82;9.60;;;6.60;56.80;;;;;;5093935;28;20365;-71
2024/01/24 09:41:55;;;;;;;8.45;5.32;;;6.90;55.90;;;;;;5093086;28;20093;-71
2024/01/24 09:44:24;;;;;;;18.88;8.30;;;7.30;54.50;;;;;;5075192;28;20093;-71
2024/01/24 09:46:53;;;;;;;10.02;6.07;;;7.50;53.30;;;;;;5093636;28;20046;-71
2024/01/24 09:49:20;;;;;;;4.93;3.58;;;7.30;53.30;;;;;;5092642;28;20036;-71
2024/01/24 09:51:46;;;;;;;;;;;7.20;54.00;;;;;;5093502;28;20131;-71
2024/01/24 09:54:13;;;;;;;10.50;6.47;;;7.10;54.50;;;;;;5092496;28;19961;-71
2024/01/24 09:56:39;;;;;;;7.70;5.22;;;7.10;54.10;;;;;;5092249;28;20032;-70
2024/01/24 09:59:06;;;;;;;;;;;7.30;54.30;;;;;;5092989;28;20293;-71
2024/01/24 10:01:40;;;;;;;7.28;3.83;;;7.50;52.90;;;;;;5074550;28;20414;-71
2024/01/24 10:04:07;;;;;;;4.60;3.13;;;7.60;52.20;;;;;;5092268;28;20036;-71
2024/01/24 10:06:35;;;;;;;10.45;6.85;;;7.80;52.70;;;;;;5092089;28;20040;-71
2024/01/24 10:09:01;;;;;;;26.67;9.00;;;8.00;52.40;;;;;;5092081;28;20028;-71
2024/01/24 10:11:28;;;;;;;4.88;3.13;;;8.20;52.00;;;;;;5074485;28;20407;-71
2024/01/24 10:14:07;;;;;;;10.68;3.15;;;8.40;51.40;;;;;;5075002;28;20024;-71
2024/01/24 10:16:35;;;;;;;4.55;3.25;;;8.60;50.80;;;;;;5091542;28;20442;-71
2024/01/24 10:19:01;;;;;;;18.05;5.88;;;8.60;50.90;;;;;;5093133;28;20025;-71
2024/01/24 10:21:27;;;;;;;37.00;10.13;;;9.00;50.50;;;;;;5073858;28;20121;-71
2024/01/24 10:24:11;;;;;;;6.68;3.47;;;9.60;48.70;;;;;;5093158;28;20024;-71
2024/01/24 10:26:38;;;;;;;4.00;3.05;;;9.70;48.60;;;;;;5074695;28;20036;-71
2024/01/24 10:29:05;;;;;;;3.88;2.88;;;9.50;49.00;;;;;;5091668;28;20052;-71
2024/01/24 10:31:31;;;;;;;4.78;2.30;;;9.50;49.60;;;;;;5092047;28;20417;-71
2024/01/24 10:33:57;;;;;;;7.78;5.07;;;9.50;50.10;;;;;;5092829;28;20032;-71
2024/01/24 10:36:27;;;;;;;5.60;4.10;;;9.60;49.70;;;;;;5091529;28;20032;-71
2024/01/24 10:39:15;;;;;;;9.68;4.47;;;9.70;49.00;;;;;;5074621;28;20036;-71
2024/01/24 10:41:44;;;;;;;1.90;1.30;;;9.80;49.30;;;;;;5090784;28;20040;-71
2024/01/24 10:44:16;;;;;;;10.65;2.92;;;9.80;48.20;;;;;;5091440;28;20028;-70
2024/01/24 10:46:43;;;;;;;2.60;1.83;;;10.00;48.40;;;;;;5090816;28;20435;-71
2024/01/24 10:49:13;;;;;;;3.63;1.77;;;10.10;47.80;;;;;;5074354;28;20032;-71
2024/01/24 10:51:41;;;;;;;4.65;2.03;;;10.10;47.10;;;;;;5091767;28;20397;-71
2024/01/24 10:54:11;;;;;;;4.47;2.53;;;10.00;47.50;;;;;;5091943;28;20107;-71
2024/01/24 10:56:39;;;;;;;0.95;0.75;;;9.90;47.30;;;;;;5091768;28;20024;-71
2024/01/24 10:59:08;;;;;;;1.73;1.15;;;9.80;46.60;;;;;;5091038;28;20503;-71
2024/01/24 11:01:34;;;;;;;3.08;2.67;;;9.70;46.60;;;;;;5091793;28;20101;-71
2024/01/24 11:04:04;;;;;;;2.42;1.58;;;9.50;47.00;;;;;;5092368;28;20028;-71
2024/01/24 11:06:32;;;;;;;2.20;1.05;;;9.40;47.50;;;;;;5090979;28;20036;-71
2024/01/24 11:09:42;;;;;;;2.67;1.98;;;9.30;47.30;;;;;;5090938;28;20085;-71
2024/01/24 11:12:08;;;;;;;1.30;0.93;;;9.10;48.10;;;;;;5091171;28;20409;-71
2024/01/24 11:14:36;;;;;;;1.67;1.58;;;9.00;48.40;;;;;;5073917;28;20051;-71
2024/01/24 11:17:21;;;;;;;4.75;2.70;;;8.90;49.90;;;;;;5073216;28;20036;-71
2024/01/24 11:19:47;;;;;;;1.70;0.93;;;9.00;49.30;;;;;;5092155;28;20480;-71
2024/01/24 11:22:24;;;;;;;3.70;2.45;;;9.00;49.50;;;;;;5089897;28;20415;-71
2024/01/24 11:24:55;;;;;;;2.22;1.58;;;9.00;49.40;;;;;;5090588;28;20035;-71
2024/01/24 11:27:41;;;;;;;1.73;1.38;;;9.20;49.00;;;;;;5091529;28;20039;-71
2024/01/24 11:30:26;;;;;;;4.47;3.03;;;9.20;48.70;;;;;;5091235;28;20050;-71
2024/01/24 11:33:14;;;;;;;4.43;2.28;;;9.10;48.30;;;;;;5091775;28;20024;-71
2024/01/24 11:36:01;;;;;;;2.08;1.40;;;8.90;48.30;;;;;;5090415;28;20039;-70
2024/01/24 11:38:28;;;;;;;;;;;8.90;48.30;;;;;;5092415;28;20020;-70
2024/01/24 11:41:00;;;;;;;6.05;3.83;;;8.90;48.60;;;;;;5091192;28;19942;-70
2024/01/24 11:43:28;;;;;;;4.63;3.15;;;8.90;48.80;;;;;;5091828;28;20051;-71
2024/01/24 11:46:02;;;;;;;3.55;2.55;;;9.00;48.60;;;;;;5091022;28;20445;-70
2024/01/24 11:48:36;;;;;;;7.57;4.68;;;9.00;48.60;;;;;;5090261;28;20062;-70
2024/01/24 11:51:04;;;;;;;10.48;3.28;;;9.20;48.60;;;;;;5090822;28;20412;-70
2024/01/24 11:53:31;;;;;;;4.75;4.13;;;9.40;48.40;;;;;;5073385;28;20016;-70
2024/01/24 11:55:59;;;;;;;10.27;6.15;;;9.50;47.70;;;;;;5091429;28;20419;-70
2024/01/24 11:58:27;;;;;;;6.30;4.20;;;9.60;48.10;;;;;;5090105;28;20055;-70
2024/01/24 12:01:13;;;;;;;5.70;3.97;;;9.70;47.80;;;;;;5089282;28;20115;-70
2024/01/24 12:03:47;;;;;;;7.53;4.25;;;9.80;47.50;;;;;;5091445;28;20024;-70
2024/01/24 12:06:13;;;;;;;6.05;3.95;;;9.80;47.10;;;;;;5091212;28;20055;-70
2024/01/24 12:08:39;;;;;;;4.50;2.80;;;9.80;47.30;;;;;;5090426;28;20040;-70
2024/01/24 12:11:09;;;;;;;7.43;4.65;;;9.80;47.30;;;;;;5089270;28;20458;-70
2024/01/24 12:13:35;;;;;;;7.00;3.45;;;9.80;47.30;;;;;;5091291;28;20089;-70
2024/01/24 12:16:02;;;;;;;7.80;4.45;;;9.80;46.80;;;;;;5072543;28;20089;-70
2024/01/24 12:18:28;;;;;;;3.63;2.75;;;9.90;46.90;;;;;;5073230;28;20043;-70
2024/01/24 12:20:55;;;;;;;5.25;3.42;;;9.90;46.90;;;;;;5090302;28;20058;-71
2024/01/24 12:23:22;;;;;;;4.55;2.90;;;10.00;47.00;;;;;;5089886;28;20063;-70
2024/01/24 12:25:48;;;;;;;9.50;5.53;;;10.20;46.70;;;;;;5089453;28;20320;-70
2024/01/24 12:28:14;;;;;;;;;;;10.30;46.50;;;;;;5091575;28;20060;-70
2024/01/24 12:31:03;;;;;;;6.13;4.10;;;10.50;45.40;;;;;;5089052;28;19926;-71
2024/01/24 12:33:32;;;;;;;5.10;3.20;;;10.50;45.20;;;;;;5073644;28;20036;-70
2024/01/24 12:36:40;;;;;;;10.93;4.45;;;10.40;45.60;;;;;;5089658;28;20469;-70
2024/01/24 12:39:07;;;;;;;3.35;2.33;;;10.30;46.00;;;;;;5090986;28;20032;-70
2024/01/24 12:41:33;;;;;;;;;;;10.10;46.30;;;;;;5089486;28;20044;-70
2024/01/24 12:43:59;;;;;;;2.95;1.85;;;9.90;46.90;;;;;;5089841;28;19912;-70
2024/01/24 12:46:25;;;;;;;5.47;4.30;;;9.70;47.00;;;;;;5089432;28;20494;-70
2024/01/24 12:48:51;;;;;;;;;;;9.70;46.80;;;;;;5090566;28;20109;-70
2024/01/24 12:51:17;;;;;;;8.43;2.92;;;9.80;47.10;;;;;;5090177;28;19998;-70
2024/01/24 12:53:43;;;;;;;5.00;4.20;;;9.90;47.00;;;;;;5090853;28;20035;-70
2024/01/24 12:56:09;;;;;;;5.78;4.15;;;10.00;46.60;;;;;;5090836;28;20427;-70
2024/01/24 12:58:36;;;;;;;9.50;3.13;;;10.00;46.30;;;;;;5089632;28;20036;-70
2024/01/24 13:01:02;;;;;;;3.45;2.67;;;10.10;46.30;;;;;;5088799;28;20514;-70
2024/01/24 13:03:28;;;;;;;10.18;3.25;;;10.40;46.10;;;;;;5089731;28;20039;-70
2024/01/24 13:05:54;;;;;;;13.18;5.38;;;10.80;45.10;;;;;;5088953;28;20040;-70
2024/01/24 13:08:20;;;;;;;7.30;4.68;;;11.30;44.40;;;;;;5089550;28;20037;-70
2024/01/24 13:10:47;;;;;;;10.27;6.07;;;11.50;43.60;;;;;;5088621;28;20064;-70
2024/01/24 13:13:13;;;;;;;7.43;4.15;;;11.90;43.40;;;;;;5090823;28;20024;-70
2024/01/24 13:15:40;;;;;;;11.45;8.10;;;12.10;42.80;;;;;;5071963;28;20036;-70